Time;durP1;ratioP1;P1;durP2;ratioP2;P2;SDS_P1;SDS_P2;PMS_P1;PMS_P2;Temp;Humidity;BMP_temperature;BMP_pressure;BME280_temperature;BME280_humidity;BME280_pressure;Samples;Min_cycle;Max_cycle;Signal;HPM_P1;HPM_P2
2022/09/05 00:00:08;;;;;;;16.88;9.65;;;;;;;24.22;62.91;101813.25;5017503;28;20160;-82
2022/09/05 00:03:15;;;;;;;11.73;10.00;;;;;;;24.23;63.18;101817.66;5017945;28;20829;-82
2022/09/05 00:05:56;;;;;;;13.57;7.93;;;;;;;24.10;63.11;101796.69;5017938;28;20182;-81
2022/09/05 00:08:50;;;;;;;11.75;8.73;;;;;;;24.22;63.13;101817.84;5017353;28;20186;-82
2022/09/05 00:11:35;;;;;;;11.98;7.95;;;;;;;23.95;63.21;101778.84;5016820;28;20542;-80
2022/09/05 00:14:32;;;;;;;;;;;;;;;24.11;63.26;101813.81;5017439;28;20044;-81
2022/09/05 00:17:44;;;;;;;9.80;8.60;;;;;;;23.97;63.43;101793.88;5011480;28;20351;-83
2022/09/05 00:20:53;;;;;;;8.65;7.53;;;;;;;24.13;63.12;101810.88;5017318;28;20162;-83
2022/09/05 00:23:46;;;;;;;14.70;8.82;;;;;;;24.07;63.14;101813.34;5017957;28;20572;-83
2022/09/05 00:26:51;;;;;;;9.38;8.48;;;;;;;24.05;63.25;101814.59;5019128;28;20576;-83
2022/09/05 00:29:33;;;;;;;10.05;8.45;;;;;;;24.07;63.26;101820.66;5017466;28;20053;-81
2022/09/05 00:32:20;;;;;;;;;;;;;;;24.00;63.86;101812.47;5017523;28;20088;-82
2022/09/05 00:35:04;;;;;;;11.38;7.82;;;;;;;23.84;63.84;101780.22;5018609;28;20847;-83
2022/09/05 00:37:41;;;;;;;9.95;7.65;;;;;;;23.66;63.67;101751.66;5017272;28;20076;-82
2022/09/05 00:40:29;;;;;;;9.95;7.85;;;;;;;23.67;63.72;101766.06;5016855;28;20473;-83
2022/09/05 00:43:04;;;;;;;10.48;7.68;;;;;;;23.79;63.74;101788.09;5018122;28;20052;-82
2022/09/05 00:45:52;;;;;;;11.00;8.50;;;;;;;23.93;64.02;101821.56;5019214;28;20505;-82
2022/09/05 00:48:33;;;;;;;13.88;9.65;;;;;;;23.90;64.13;101814.66;5017022;28;20134;-83
2022/09/05 00:51:00;;;;;;;;;;;;;;;23.91;64.12;101812.78;5016947;28;20053;-81
2022/09/05 00:53:40;;;;;;;17.52;9.40;;;;;;;23.72;64.21;101779.03;5017061;28;20462;-82
2022/09/05 00:56:25;;;;;;;13.25;9.32;;;;;;;23.89;64.31;101802.16;5018023;28;20308;-82
2022/09/05 00:58:57;;;;;;;13.05;8.80;;;;;;;23.97;63.82;101804.72;5016959;28;20053;-82
2022/09/05 01:02:17;;;;;;;14.65;9.63;;;;;;;23.94;63.30;101788.00;5016839;28;20052;-82
2022/09/05 01:04:47;;;;;;;12.48;8.30;;;;;;;24.04;62.93;101800.19;4989383;28;20385;-82
2022/09/05 01:07:38;;;;;;;8.95;8.07;;;;;;;23.96;63.82;101792.22;5024205;28;20453;-81
2022/09/05 01:10:35;;;;;;;11.05;9.05;;;;;;;23.95;63.44;101793.22;5025398;28;20203;-82
2022/09/05 01:13:41;;;;;;;10.45;9.13;;;;;;;23.87;63.54;101793.38;5022855;28;20052;-82
2022/09/05 01:16:14;;;;;;;11.75;8.18;;;;;;;23.52;63.35;101741.75;4984940;28;20080;-82
2022/09/05 01:18:52;;;;;;;8.93;7.15;;;;;;;23.71;63.87;101786.31;5025017;28;20115;-82
2022/09/05 01:21:40;;;;;;;12.38;8.23;;;;;;;23.72;64.35;101804.28;5024594;28;20069;-82
2022/09/05 01:24:22;;;;;;;9.25;8.15;;;;;;;23.56;64.29;101810.78;5029036;28;20468;-83
2022/09/05 01:26:58;;;;;;;16.83;8.48;;;;;;;23.56;64.09;101793.69;5027421;28;20226;-82
2022/09/05 01:29:44;;;;;;;9.20;7.20;;;;;;;23.62;64.02;101801.88;5026889;28;20532;-81
2022/09/05 01:32:43;;;;;;;13.70;8.38;;;;;;;23.23;64.25;101746.25;5025999;28;20792;-81
2022/09/05 01:35:40;;;;;;;13.18;8.10;;;;;;;23.39;64.13;101766.81;5008877;28;20549;-82
2022/09/05 01:38:39;;;;;;;16.67;9.45;;;;;;;23.46;64.09;101753.34;5026358;28;20411;-81
2022/09/05 01:41:12;;;;;;;11.25;9.30;;;;;;;23.80;64.20;101806.03;5026628;28;20096;-81
2022/09/05 01:44:03;;;;;;;12.63;8.90;;;;;;;23.76;64.36;101799.31;5026023;28;20075;-82
2022/09/05 01:47:27;;;;;;;9.20;7.88;;;;;;;23.64;64.94;101799.81;5027045;28;20150;-82
2022/09/05 01:50:05;;;;;;;9.52;8.55;;;;;;;23.59;65.25;101810.41;4951096;28;20673;-81
2022/09/05 01:52:56;;;;;;;10.23;8.20;;;;;;;23.59;65.24;101815.84;4965263;28;20151;-81
2022/09/05 01:55:57;;;;;;;11.02;8.05;;;;;;;23.45;65.31;101800.47;4996431;28;20053;-82
2022/09/05 01:58:41;;;;;;;;;;;;;;;23.42;65.69;101820.66;5022208;28;20061;-82
2022/09/05 02:01:10;;;;;;;14.13;9.65;;;;;;;23.38;65.64;101821.22;5021899;28;19932;-81
2022/09/05 02:04:25;;;;;;;12.23;9.68;;;;;;;23.09;66.14;101779.63;5006316;28;20049;-81
2022/09/05 02:07:29;;;;;;;10.10;8.43;;;;;;;23.29;66.18;101814.25;5006096;28;20147;-82
2022/09/05 02:10:32;;;;;;;15.73;9.55;;;;;;;23.27;66.02;101808.16;5006366;28;20057;-82
2022/09/05 02:13:21;;;;;;;14.45;8.05;;;;;;;23.18;65.71;101791.19;4986024;28;20049;-81
2022/09/05 02:16:27;;;;;;;10.85;9.25;;;;;;;23.25;65.78;101811.91;5006133;28;20211;-82
2022/09/05 02:19:10;;;;;;;11.50;8.20;;;;;;;23.29;65.33;101815.06;5004935;28;20657;-82
2022/09/05 02:21:47;;;;;;;14.52;9.45;;;;;;;22.68;64.76;101708.94;5004775;28;20089;-82
2022/09/05 02:24:34;;;;;;;13.55;9.55;;;;;;;23.32;65.04;101819.28;5020934;28;20046;-82
2022/09/05 02:27:22;;;;;;;10.32;8.75;;;;;;;23.31;65.20;101826.56;5007660;28;20512;-82
2022/09/05 02:30:15;;;;;;;13.25;8.55;;;;;;;23.31;65.29;101815.72;5005540;28;20053;-82
2022/09/05 02:33:10;;;;;;;9.00;8.10;;;;;;;23.30;65.24;101818.63;5004518;28;20049;-83
2022/09/05 02:35:46;;;;;;;11.75;9.25;;;;;;;23.30;65.15;101818.63;5005556;28;20049;-82
2022/09/05 02:38:28;;;;;;;10.57;8.75;;;;;;;23.33;65.05;101820.97;5021506;28;20068;-81
2022/09/05 02:41:14;;;;;;;9.40;8.18;;;;;;;22.99;64.80;101765.56;5024960;28;20520;-81
2022/09/05 02:44:23;;;;;;;14.38;8.82;;;;;;;22.92;64.78;101753.78;5025800;28;20163;-82
2022/09/05 02:47:37;;;;;;;12.65;8.80;;;;;;;23.33;64.55;101831.81;5025650;28;20187;-81
2022/09/05 02:50:43;;;;;;;11.63;8.63;;;;;;;23.31;64.43;101828.44;5002871;28;20057;-81
2022/09/05 02:53:31;;;;;;;15.10;8.02;;;;;;;23.27;65.04;101829.84;5020201;28;20147;-82
2022/09/05 02:56:24;;;;;;;12.95;8.50;;;;;;;22.22;65.40;101660.47;5005057;28;20511;-82
2022/09/05 02:59:20;;;;;;;12.20;8.65;;;;;;;23.24;65.03;101831.91;5005559;28;20114;-82
2022/09/05 03:02:07;;;;;;;10.57;8.75;;;;;;;23.02;65.48;101797.69;5006100;28;20619;-82
2022/09/05 03:05:06;;;;;;;14.63;8.80;;;;;;;23.11;65.50;101814.63;5005663;28;20459;-82
2022/09/05 03:07:33;;;;;;;17.42;9.55;;;;;;;22.87;65.18;101762.47;5004569;28;20158;-83
2022/09/05 03:10:15;;;;;;;13.60;9.38;;;;;;;22.25;65.51;101665.50;5005351;28;20393;-83
2022/09/05 03:13:02;;;;;;;9.85;8.77;;;;;;;23.27;65.66;101824.44;5021541;28;20049;-82
2022/09/05 03:15:50;;;;;;;10.90;9.45;;;;;;;23.17;66.39;101833.69;4974972;28;20208;-82
2022/09/05 03:18:30;;;;;;;10.38;9.40;;;;;;;23.06;66.50;101828.78;5006764;28;20151;-82
2022/09/05 03:21:33;;;;;;;11.88;9.18;;;;;;;23.03;66.83;101821.00;5023046;28;20144;-81
2022/09/05 03:24:29;;;;;;;10.10;8.30;;;;;;;23.06;66.15;101831.50;5007997;28;20191;-82
2022/09/05 03:26:56;;;;;;;13.70;8.93;;;;;;;23.11;66.17;101839.88;5003195;28;20309;-83
2022/09/05 03:29:44;;;;;;;11.77;9.57;;;;;;;23.02;65.81;101814.75;5004555;28;20592;-82
2022/09/05 03:32:36;;;;;;;11.88;10.45;;;;;;;23.12;65.92;101846.13;5005976;28;20150;-82
2022/09/05 03:35:31;;;;;;;8.80;7.90;;;;;;;22.15;66.19;101687.41;5019950;28;20437;-82
2022/09/05 03:38:22;;;;;;;9.30;8.47;;;;;;;22.66;66.35;101781.34;5017616;28;20081;-82
2022/09/05 03:41:04;;;;;;;16.98;9.70;;;;;;;23.01;66.40;101839.31;5023266;28;20245;-82
2022/09/05 03:43:34;;;;;;;13.45;9.73;;;;;;;23.00;66.38;101843.91;5023397;28;20077;-83
2022/09/05 03:46:25;;;;;;;16.15;10.23;;;;;;;22.86;66.71;101844.72;5025273;28;20064;-82
2022/09/05 03:48:52;;;;;;;16.02;9.73;;;;;;;22.40;67.04;101783.50;5023551;28;20452;-81
2022/09/05 03:51:28;;;;;;;15.88;10.20;;;;;;;22.84;66.92;101852.19;5023798;28;20083;-82
2022/09/05 03:54:55;;;;;;;12.43;10.35;;;;;;;22.78;67.32;101850.22;5024188;28;20048;-82
2022/09/05 03:58:01;;;;;;;17.63;10.80;;;;;;;22.69;67.77;101852.19;5024494;28;20126;-82
2022/09/05 04:01:02;;;;;;;14.27;11.05;;;;;;;22.67;67.42;101832.59;5024045;28;20056;-83
2022/09/05 04:03:56;;;;;;;17.25;11.45;;;;;;;22.47;67.96;101828.75;5026626;28;20053;-82
2022/09/05 04:06:58;;;;;;;15.73;10.73;;;;;;;21.72;67.61;101712.34;5028713;28;20102;-82
2022/09/05 04:09:49;;;;;;;;;;;;;;;22.48;68.41;101844.81;5026235;28;20529;-82
2022/09/05 04:12:23;;;;;;;16.75;11.27;;;;;;;22.37;68.32;101843.38;5023061;28;19924;-83
2022/09/05 04:14:56;;;;;;;14.60;10.63;;;;;;;22.38;68.05;101842.38;5023470;28;20158;-81
2022/09/05 04:17:41;;;;;;;15.30;12.43;;;;;;;22.55;68.09;101855.72;5023733;28;20567;-83
2022/09/05 04:20:21;;;;;;;11.82;9.93;;;;;;;21.55;67.98;101687.34;5023855;28;20048;-83
2022/09/05 04:23:15;;;;;;;17.13;11.80;;;;;;;22.30;68.27;101815.38;5024134;28;20056;-81
2022/09/05 04:25:56;;;;;;;14.82;11.52;;;;;;;22.31;68.07;101813.53;5023923;28;20159;-82
2022/09/05 04:28:52;;;;;;;15.05;12.80;;;;;;;22.57;68.41;101869.91;5025439;28;20565;-82
2022/09/05 04:31:25;;;;;;;12.23;9.43;;;;;;;22.23;68.30;101809.03;5024064;28;20084;-82
2022/09/05 04:34:01;;;;;;;18.55;13.20;;;;;;;22.40;68.52;101836.75;5024040;28;20820;-80
2022/09/05 04:36:38;;;;;;;16.50;12.40;;;;;;;22.42;68.42;101847.41;5023630;28;20146;-82
2022/09/05 04:39:17;;;;;;;16.92;11.75;;;;;;;22.52;68.95;101875.03;5023868;28;20655;-82
2022/09/05 04:41:56;;;;;;;15.23;11.07;;;;;;;22.48;68.82;101881.84;5023850;28;20489;-82
2022/09/05 04:44:31;;;;;;;15.32;12.00;;;;;;;22.15;68.98;101849.66;5023905;28;20138;-81
2022/09/05 04:47:18;;;;;;;18.20;11.90;;;;;;;22.32;69.26;101889.09;5023870;28;20509;-82
2022/09/05 04:50:02;;;;;;;12.82;10.30;;;;;;;22.08;69.39;101854.94;5024799;28;20559;-81
2022/09/05 04:53:00;;;;;;;20.05;10.95;;;;;;;22.23;69.12;101889.34;5022551;28;20623;-81
2022/09/05 04:55:32;;;;;;;16.15;10.88;;;;;;;22.15;69.34;101884.81;5021733;28;20048;-80
2022/09/05 04:58:11;;;;;;;12.95;9.25;;;;;;;21.98;69.02;101860.59;5008399;28;20085;-81
2022/09/05 05:00:46;;;;;;;17.20;10.70;;;;;;;21.83;68.59;101829.16;5007025;28;20157;-80
2022/09/05 05:03:34;;;;;;;12.27;8.68;;;;;;;21.83;68.53;101845.34;5007739;28;20057;-81
2022/09/05 05:06:30;;;;;;;14.32;9.80;;;;;;;22.04;68.17;101858.19;5007173;28;20509;-82
2022/09/05 05:09:30;;;;;;;20.52;10.00;;;;;;;22.11;67.87;101859.13;5008863;28;20054;-82
2022/09/05 05:12:15;;;;;;;11.27;8.50;;;;;;;21.46;67.99;101744.31;5005220;28;20148;-81
2022/09/05 05:15:12;;;;;;;17.17;10.85;;;;;;;22.38;67.30;101888.38;5005848;28;20053;-82
2022/09/05 05:18:17;;;;;;;10.95;9.38;;;;;;;22.18;66.41;101849.28;5008650;28;20253;-80
2022/09/05 05:21:17;;;;;;;18.23;9.35;;;;;;;22.48;66.20;101879.16;5006883;28;20830;-82
2022/09/05 05:23:50;;;;;;;13.70;9.40;;;;;;;22.33;66.51;101855.63;5006656;28;20061;-82
2022/09/05 05:26:31;;;;;;;11.90;8.93;;;;;;;22.18;66.18;101827.63;5010086;28;20117;-82
2022/09/05 05:29:00;;;;;;;18.60;9.27;;;;;;;22.25;66.83;101842.16;5017957;28;20057;-82
2022/09/05 05:31:33;;;;;;;13.43;8.73;;;;;;;22.27;66.87;101850.09;5014691;28;20061;-81
2022/09/05 05:34:19;;;;;;;17.48;9.18;;;;;;;22.62;66.69;101899.97;5012624;28;20049;-81
2022/09/05 05:36:58;;;;;;;10.90;8.65;;;;;;;22.37;66.57;101873.13;5011205;28;20357;-81
2022/09/05 05:39:28;;;;;;;14.23;9.82;;;;;;;22.36;67.04;101882.28;5024523;28;20510;-83
2022/09/05 05:41:57;;;;;;;16.73;9.77;;;;;;;22.51;66.97;101914.78;5011310;28;20053;-82
2022/09/05 05:44:56;;;;;;;12.32;9.32;;;;;;;22.54;66.22;101898.16;5010840;28;20045;-82
2022/09/05 05:47:30;;;;;;;13.55;9.35;;;;;;;22.73;65.64;101909.50;5027822;28;20130;-82
2022/09/05 05:50:04;;;;;;;12.00;9.57;;;;;;;22.16;65.18;101811.63;5027095;28;20387;-83
2022/09/05 05:52:42;;;;;;;9.38;8.27;;;;;;;22.78;66.00;101905.22;5025774;28;20041;-82
2022/09/05 05:56:03;;;;;;;11.32;9.25;;;;;;;22.24;65.22;101805.31;5016590;28;20061;-81
2022/09/05 05:59:08;;;;;;;22.83;9.50;;;;;;;22.86;66.03;101906.16;4955408;28;20050;-82
2022/09/05 06:01:47;;;;;;;12.02;7.93;;;;;;;22.87;65.98;101908.69;5022753;28;20049;-82
2022/09/05 06:04:49;;;;;;;15.32;9.40;;;;;;;22.89;65.31;101911.19;4970885;28;20058;-82
2022/09/05 06:07:28;;;;;;;11.98;9.07;;;;;;;22.79;65.57;101889.78;5004144;28;20516;-82
2022/09/05 06:10:53;;;;;;;10.60;8.55;;;;;;;22.97;65.41;101911.09;4956316;28;20136;-80
2022/09/05 06:14:22;;;;;;;20.35;9.30;;;;;;;23.08;65.36;101918.78;4988267;28;20050;-82
2022/09/05 06:17:14;;;;;;;12.73;8.98;;;;;;;22.75;65.12;101851.44;4992883;28;20134;-82
2022/09/05 06:20:03;;;;;;;15.50;10.00;;;;;;;23.22;65.00;101909.81;5004939;28;20416;-83
2022/09/05 06:23:26;;;;;;;14.68;9.23;;;;;;;22.90;65.47;101856.03;5006435;28;20084;-82
2022/09/05 06:26:06;;;;;;;9.90;8.88;;;;;;;23.30;64.94;101924.28;4994589;28;20565;-82
2022/09/05 06:28:48;;;;;;;14.68;8.88;;;;;;;23.17;64.57;101893.28;4987801;28;20532;-82
2022/09/05 06:31:46;;;;;;;12.45;9.52;;;;;;;23.02;64.96;101858.09;4986149;28;20533;-82
2022/09/05 06:34:33;;;;;;;17.67;9.30;;;;;;;23.22;65.44;101890.84;4986158;28;20541;-82
2022/09/05 06:37:35;;;;;;;11.57;8.30;;;;;;;23.52;65.51;101928.75;4992812;28;20049;-82
2022/09/05 06:40:17;;;;;;;17.10;8.23;;;;;;;23.31;65.69;101888.03;5005840;28;20118;-83
2022/09/05 06:43:02;;;;;;;14.88;9.18;;;;;;;23.60;65.89;101930.50;4998388;28;20054;-80
2022/09/05 06:45:59;;;;;;;12.50;9.52;;;;;;;23.66;64.68;101935.97;4987172;28;20483;-82
2022/09/05 06:48:42;;;;;;;14.98;9.07;;;;;;;23.74;64.35;101931.50;4991588;28;20471;-82
2022/09/05 06:51:29;;;;;;;10.82;9.05;;;;;;;23.53;64.08;101886.22;5005305;28;20053;-82
2022/09/05 06:54:21;;;;;;;10.30;8.85;;;;;;;23.87;63.38;101928.97;5005384;28;20049;-83
2022/09/05 06:56:54;;;;;;;9.07;8.10;;;;;;;23.88;63.50;101936.06;5006061;28;20041;-81
2022/09/05 06:59:36;;;;;;;12.02;8.27;;;;;;;23.79;63.26;101913.66;5003293;28;20460;-82
2022/09/05 07:02:35;;;;;;;11.45;8.80;;;;;;;23.96;62.42;101935.09;4985880;28;20069;-83
2022/09/05 07:05:25;;;;;;;17.63;9.88;;;;;;;24.06;62.38;101941.06;4986522;28;20153;-83
2022/09/05 07:08:38;;;;;;;13.93;9.10;;;;;;;23.83;63.21;101897.81;4987217;28;20057;-81
2022/09/05 07:11:15;;;;;;;12.43;8.77;;;;;;;23.90;62.74;101904.16;4985672;28;20180;-82
2022/09/05 07:13:59;;;;;;;9.50;8.45;;;;;;;24.12;61.23;101918.56;4985757;28;20144;-82
2022/09/05 07:16:48;;;;;;;12.18;9.40;;;;;;;24.37;61.24;101948.00;4985563;28;20105;-82
2022/09/05 07:19:43;;;;;;;12.57;8.73;;;;;;;24.22;61.88;101923.66;4985227;28;20057;-81
2022/09/05 07:22:15;;;;;;;11.50;9.65;;;;;;;23.85;61.32;101838.81;4987486;28;20337;-81
2022/09/05 07:25:10;;;;;;;13.73;9.10;;;;;;;24.44;61.31;101938.91;4986776;28;20201;-83
2022/09/05 07:27:46;;;;;;;;;;;;;;;24.55;61.33;101956.56;4989282;28;20061;-81
2022/09/05 07:30:35;;;;;;;18.30;10.55;;;;;;;24.20;61.99;101882.31;4993948;28;19995;-83
2022/09/05 07:33:03;;;;;;;9.20;7.95;;;;;;;24.63;62.67;101923.00;4995278;28;20145;-83
2022/09/05 07:35:34;;;;;;;9.70;8.43;;;;;;;24.60;62.52;101901.66;4993257;28;20054;-83
2022/09/05 07:38:16;;;;;;;13.93;8.73;;;;;;;24.09;62.50;101800.44;5005789;28;20041;-83
2022/09/05 07:41:09;;;;;;;13.43;8.93;;;;;;;25.09;62.41;101941.47;5005318;28;20461;-82
2022/09/05 07:43:38;;;;;;;19.05;12.98;;;;;;;25.01;62.54;101933.47;5004275;28;20108;-82
2022/09/05 07:46:16;;;;;;;13.38;10.13;;;;;;;25.04;63.09;101950.22;5005513;28;20723;-80
2022/09/05 07:48:48;;;;;;;11.23;9.60;;;;;;;25.05;63.27;101948.31;5005432;28;20057;-81
2022/09/05 07:51:23;;;;;;;14.90;11.23;;;;;;;24.94;63.00;101912.53;5004883;28;20512;-84
2022/09/05 07:54:26;;;;;;;14.98;11.10;;;;;;;25.32;63.53;101947.47;5004603;28;20067;-81
2022/09/05 07:57:31;;;;;;;20.30;12.02;;;;;;;25.33;63.79;101957.31;5004552;28;20106;-82
2022/09/05 08:00:20;;;;;;;16.55;10.82;;;;;;;25.17;63.67;101938.59;5005473;28;20115;-82
2022/09/05 08:02:53;;;;;;;17.30;11.50;;;;;;;25.25;63.46;101949.31;5004520;28;20440;-82
2022/09/05 08:05:24;;;;;;;14.50;10.90;;;;;;;24.81;63.55;101852.72;5004267;28;20062;-81
2022/09/05 08:08:01;;;;;;;13.32;9.48;;;;;;;25.35;63.33;101949.78;5005109;28;20230;-81
2022/09/05 08:10:38;;;;;;;12.93;9.68;;;;;;;25.32;62.93;101917.59;4984995;28;20453;-84
2022/09/05 08:13:51;;;;;;;22.00;11.93;;;;;;;25.47;63.10;101930.19;4984953;28;20050;-83
2022/09/05 08:16:29;;;;;;;17.55;10.00;;;;;;;25.30;63.22;101902.53;4985746;28;20092;-82
2022/09/05 08:19:15;;;;;;;12.05;10.23;;;;;;;25.43;63.13;101929.75;4985638;28;20465;-83
2022/09/05 08:21:47;;;;;;;11.15;9.18;;;;;;;25.50;63.00;101927.88;4985490;28;20402;-83
2022/09/05 08:24:25;;;;;;;13.98;9.60;;;;;;;25.61;62.54;101929.19;4986553;28;20065;-82
2022/09/05 08:27:17;;;;;;;12.20;9.98;;;;;;;25.45;62.72;101902.38;4984013;28;20566;-80
2022/09/05 08:30:07;;;;;;;13.68;9.95;;;;;;;25.60;62.07;101903.03;4984896;28;20057;-82
2022/09/05 08:33:12;;;;;;;14.18;10.82;;;;;;;25.48;62.04;101899.22;4990548;28;20425;-83
2022/09/05 08:36:00;;;;;;;12.60;10.35;;;;;;;25.75;62.06;101928.19;4988668;28;20119;-80
2022/09/05 08:38:31;;;;;;;14.57;10.75;;;;;;;25.79;62.30;101936.78;5006761;28;20151;-82
2022/09/05 08:41:22;;;;;;;11.35;10.02;;;;;;;25.59;61.87;101902.19;5009084;28;20053;-81
2022/09/05 08:44:11;;;;;;;14.07;10.93;;;;;;;25.91;61.72;101945.22;5010264;28;20493;-82
2022/09/05 08:47:33;;;;;;;13.00;11.57;;;;;;;25.60;61.39;101870.41;5009500;28;20515;-82
2022/09/05 08:50:47;;;;;;;12.13;9.43;;;;;;;26.11;61.60;101940.63;4988045;28;20062;-80
2022/09/05 08:53:40;;;;;;;14.27;11.02;;;;;;;25.79;61.09;101872.31;4976084;28;20102;-81
2022/09/05 08:56:27;;;;;;;18.08;9.77;;;;;;;25.91;60.66;101901.69;4988390;28;20516;-81
2022/09/05 08:59:03;;;;;;;17.92;10.35;;;;;;;26.12;60.70;101909.66;4990321;28;20509;-80
2022/09/05 09:02:27;;;;;;;11.63;10.00;;;;;;;26.29;59.54;101931.00;4988309;28;20459;-82
2022/09/05 09:05:32;;;;;;;13.35;10.38;;;;;;;26.34;58.78;101929.34;4988909;28;20054;-82
2022/09/05 09:08:47;;;;;;;10.45;8.60;;;;;;;25.98;58.32;101867.16;4988410;28;20054;-82
2022/09/05 09:11:31;;;;;;;11.43;9.88;;;;;;;26.40;57.81;101927.66;4988805;28;20061;-81
2022/09/05 09:14:19;;;;;;;14.10;9.98;;;;;;;26.50;57.17;101928.06;4990862;28;20163;-82
2022/09/05 09:17:14;;;;;;;10.02;9.02;;;;;;;26.43;57.71;101897.28;4987879;28;20073;-81
2022/09/05 09:19:48;;;;;;;10.57;8.57;;;;;;;25.86;57.59;101790.78;4989811;28;20115;-82
2022/09/05 09:22:32;;;;;;;16.02;10.07;;;;;;;26.12;57.49;101825.31;4986676;28;20050;-81
2022/09/05 09:25:08;;;;;;;13.02;9.75;;;;;;;26.77;57.46;101909.00;5020508;28;20430;-81
2022/09/05 09:28:12;;;;;;;14.60;9.32;;;;;;;26.94;56.17;101912.94;4988988;28;20483;-85
2022/09/05 09:31:17;;;;;;;14.75;7.85;;;;;;;27.00;55.08;101884.88;4988326;28;20062;-83
2022/09/05 09:34:18;;;;;;;9.23;8.30;;;;;;;27.37;55.03;101900.69;4988461;28;20608;-82
2022/09/05 09:36:53;;;;;;;12.63;9.15;;;;;;;27.46;54.35;101894.75;4991390;28;20049;-80
2022/09/05 09:39:45;;;;;;;11.07;7.60;;;;;;;27.71;52.31;101899.44;4996185;28;20368;-79
2022/09/05 09:42:46;;;;;;;12.30;8.77;;;;;;;27.46;51.46;101829.31;4996794;28;20052;-79
2022/09/05 09:45:26;;;;;;;9.98;7.95;;;;;;;27.51;52.01;101808.75;4984085;28;20577;-79
2022/09/05 09:48:09;;;;;;;11.07;7.97;;;;;;;28.15;51.54;101902.31;4997240;28;20045;-80
2022/09/05 09:50:58;;;;;;;13.57;8.30;;;;;;;28.38;51.63;101899.84;5010579;28;20057;-79
2022/09/05 09:54:08;;;;;;;7.20;5.97;;;;;;;28.63;46.94;101894.38;5020050;28;20229;-83
2022/09/05 09:57:16;;;;;;;9.38;6.82;;;;;;;28.76;47.44;101893.38;4998075;28;20566;-81
2022/09/05 09:59:55;;;;;;;11.45;8.27;;;;;;;29.03;48.88;101899.41;5007154;28;20115;-82
2022/09/05 10:02:49;;;;;;;13.18;8.70;;;;;;;29.03;48.32;101854.81;4992905;28;20173;-82
2022/09/05 10:05:55;;;;;;;9.80;8.68;;;;;;;29.52;47.05;101892.06;4988188;28;20135;-82
2022/09/05 10:09:18;;;;;;;14.07;8.55;;;;;;;29.61;46.67;101889.81;4989937;28;20488;-78
2022/09/05 10:12:32;;;;;;;8.85;7.20;;;;;;;29.76;44.92;101883.94;5010024;28;20443;-79
2022/09/05 10:15:58;;;;;;;9.32;7.18;;;;;;;29.56;44.72;101813.09;5028110;28;20053;-80
2022/09/05 10:19:10;;;;;;;9.98;6.70;;;;;;;30.01;44.63;101879.16;5031158;28;20561;-80
2022/09/05 10:21:42;;;;;;;10.48;8.18;;;;;;;30.26;45.69;101880.88;5028069;28;20187;-80
2022/09/05 10:24:31;;;;;;;10.60;6.80;;;;;;;30.48;45.27;101877.53;5027088;28;20054;-81
2022/09/05 10:27:26;;;;;;;10.82;6.25;;;;;;;30.57;43.67;101862.41;5027460;28;20064;-79
2022/09/05 10:30:27;;;;;;;7.93;6.05;;;;;;;30.43;41.03;101843.47;5027156;28;20050;-81
2022/09/05 10:33:26;;;;;;;7.68;5.88;;;;;;;30.78;42.06;101864.53;5026449;28;20057;-82
2022/09/05 10:36:23;;;;;;;8.52;6.28;;;;;;;30.96;41.52;101858.06;5028499;28;20386;-79
2022/09/05 10:39:17;;;;;;;7.80;5.82;;;;;;;30.90;41.63;101806.97;5016134;28;20080;-80
2022/09/05 10:41:56;;;;;;;8.05;6.60;;;;;;;31.19;41.04;101813.31;5026844;28;20415;-80
2022/09/05 10:44:41;;;;;;;11.90;6.65;;;;;;;31.45;40.44;101852.19;5026964;28;20099;-82
2022/09/05 10:47:34;;;;;;;7.70;6.63;;;;;;;31.43;40.68;101840.63;5027495;28;20049;-82
2022/09/05 10:50:28;;;;;;;10.38;6.95;;;;;;;31.45;40.93;101827.50;5008083;28;20305;-82
2022/09/05 10:53:20;;;;;;;8.55;5.90;;;;;;;31.55;40.35;101811.22;5005538;28;20500;-82
2022/09/05 10:56:13;;;;;;;10.18;7.22;;;;;;;31.82;40.48;101816.88;5008277;28;20060;-83
2022/09/05 10:58:59;;;;;;;7.28;6.57;;;;;;;32.01;40.80;101819.41;5006590;28;20226;-82
2022/09/05 11:02:13;;;;;;;8.00;6.47;;;;;;;32.15;40.63;101799.59;5020749;28;20073;-82
2022/09/05 11:05:18;;;;;;;7.80;5.70;;;;;;;32.32;39.82;101820.72;5019330;28;20119;-81
2022/09/05 11:07:51;;;;;;;10.10;6.75;;;;;;;31.16;40.54;101621.78;5006218;28;20062;-82
2022/09/05 11:10:30;;;;;;;8.77;7.10;;;;;;;31.66;39.68;101684.06;5010902;28;20285;-82
2022/09/05 11:13:15;;;;;;;6.25;5.60;;;;;;;32.59;39.64;101803.53;5024942;28;20140;-83
2022/09/05 11:16:00;;;;;;;7.35;5.50;;;;;;;32.70;38.97;101800.66;5024733;28;20424;-82
2022/09/05 11:18:40;;;;;;;6.95;5.97;;;;;;;32.39;38.82;101727.94;5024580;28;20069;-81
2022/09/05 11:22:00;;;;;;;7.60;6.05;;;;;;;32.01;37.40;101610.72;5024474;28;20615;-81
2022/09/05 11:25:02;;;;;;;8.40;5.88;;;;;;;33.33;37.33;101787.34;5016984;28;20053;-80
2022/09/05 11:27:53;;;;;;;6.78;5.40;;;;;;;33.09;36.30;101753.00;5013780;28;20072;-81
2022/09/05 11:30:22;;;;;;;7.63;5.70;;;;;;;32.40;37.24;101644.41;5014973;28;20107;-81
2022/09/05 11:33:35;;;;;;;7.47;5.45;;;;;;;33.34;36.46;101777.97;5013320;28;20084;-81
2022/09/05 11:36:47;;;;;;;11.82;5.93;;;;;;;33.48;36.01;101772.88;5015311;28;20144;-81
2022/09/05 11:39:46;;;;;;;11.32;6.00;;;;;;;33.54;36.27;101765.47;5017300;28;20053;-83
2022/09/05 11:42:54;;;;;;;6.95;5.75;;;;;;;33.36;36.22;101707.00;5043949;28;20073;-83
2022/09/05 11:45:45;;;;;;;7.53;5.28;;;;;;;34.08;35.17;101768.16;5047722;28;20049;-83
2022/09/05 11:48:15;;;;;;;11.15;6.10;;;;;;;34.12;35.46;101755.50;5035033;28;20250;-82
2022/09/05 11:50:44;;;;;;;8.27;5.60;;;;;;;34.33;35.11;101758.38;5021643;28;20091;-83
2022/09/05 11:53:26;;;;;;;7.40;5.38;;;;;;;34.44;34.33;101747.09;5022612;28;20053;-83
2022/09/05 11:56:08;;;;;;;10.45;5.45;;;;;;;34.65;34.52;101753.56;5025674;28;20049;-81
2022/09/05 11:59:19;;;;;;;7.10;6.00;;;;;;;34.98;34.32;101748.69;5025506;28;20061;-83
2022/09/05 12:02:32;;;;;;;5.97;5.38;;;;;;;35.16;33.60;101752.88;5009915;28;20053;-82
2022/09/05 12:05:21;;;;;;;5.63;5.13;;;;;;;35.31;34.48;101749.28;5025623;28;20532;-81
2022/09/05 12:08:44;;;;;;;8.75;5.35;;;;;;;35.52;33.44;101745.44;5024498;28;20130;-82
2022/09/05 12:11:28;;;;;;;7.10;5.03;;;;;;;35.48;33.21;101727.75;5001192;28;20089;-83
2022/09/05 12:14:10;;;;;;;9.90;5.03;;;;;;;35.78;32.79;101748.22;5015102;28;20081;-82
2022/09/05 12:17:20;;;;;;;6.43;5.40;;;;;;;34.86;33.56;101585.38;5004836;28;20104;-81
2022/09/05 12:20:07;;;;;;;7.20;5.80;;;;;;;35.99;32.82;101745.38;5004548;28;20502;-81
2022/09/05 12:23:24;;;;;;;9.05;5.28;;;;;;;35.81;31.53;101720.00;5004255;28;20112;-79
2022/09/05 12:26:32;;;;;;;7.03;4.90;;;;;;;35.91;31.93;101741.25;5006355;28;20049;-82
2022/09/05 12:29:22;;;;;;;7.85;5.50;;;;;;;35.65;33.06;101726.66;5006425;28;20042;-82
2022/09/05 12:32:14;;;;;;;7.22;4.78;;;;;;;34.85;33.02;101600.25;5006610;28;20050;-82
2022/09/05 12:35:02;;;;;;;9.00;4.47;;;;;;;34.73;33.66;101644.63;5006073;28;20060;-82
2022/09/05 12:38:31;;;;;;;8.30;4.82;;;;;;;34.84;34.58;101711.69;5017807;28;20124;-82
2022/09/05 12:41:25;;;;;;;7.55;4.97;;;;;;;34.41;34.68;101713.75;5025397;28;20143;-82
2022/09/05 12:44:23;;;;;;;7.25;5.15;;;;;;;34.03;34.93;101702.81;5026063;28;20472;-82
2022/09/05 12:47:11;;;;;;;5.78;4.60;;;;;;;33.66;35.53;101678.06;5027423;28;20049;-82
2022/09/05 12:50:11;;;;;;;4.53;4.07;;;;;;;33.86;35.01;101695.81;5017599;28;20057;-81
2022/09/05 12:52:45;;;;;;;7.80;4.75;;;;;;;33.06;35.63;101643.47;5024899;28;20119;-81
2022/09/05 12:55:24;;;;;;;7.63;5.05;;;;;;;33.15;36.21;101696.91;5026140;28;20520;-83
2022/09/05 12:57:58;;;;;;;12.98;5.30;;;;;;;32.73;36.46;101635.16;5026409;28;20053;-84
2022/09/05 13:00:47;;;;;;;10.10;5.10;;;;;;;33.07;36.35;101689.16;5025190;28;20041;-84
2022/09/05 13:03:42;;;;;;;13.85;5.28;;;;;;;32.74;36.36;101658.00;5006946;28;20139;-82